Time;durP1;ratioP1;P1;durP2;ratioP2;P2;SDS_P1;SDS_P2;PMS_P1;PMS_P2;Temp;Humidity;BMP_temperature;BMP_pressure;BME280_temperature;BME280_humidity;BME280_pressure;Samples;Min_cycle;Max_cycle;Signal;HPM_P1;HPM_P2
2021/09/24 00:01:06;;;;;;;23.07;21.20;;;13.00;99.90;;;;;;4918011;29;20822;-71
2021/09/24 00:03:33;;;;;;;22.30;20.30;;;13.00;99.90;;;;;;4918369;29;20469;-72
2021/09/24 00:06:00;;;;;;;21.63;20.00;;;12.90;99.90;;;;;;4917965;29;20961;-72
2021/09/24 00:08:27;;;;;;;20.30;18.90;;;12.90;99.90;;;;;;4917929;29;20446;-71
2021/09/24 00:10:53;;;;;;;21.23;18.77;;;13.00;99.90;;;;;;4917790;29;20864;-72
2021/09/24 00:13:20;;;;;;;19.60;17.67;;;13.00;99.90;;;;;;4918201;29;20473;-72
2021/09/24 00:15:49;;;;;;;18.73;17.43;;;13.10;99.90;;;;;;4917900;29;20823;-72
2021/09/24 00:18:16;;;;;;;18.87;17.77;;;13.20;99.90;;;;;;4917999;29;20483;-72
2021/09/24 00:20:42;;;;;;;19.90;18.50;;;13.20;99.90;;;;;;4917697;29;20497;-71
2021/09/24 00:23:09;;;;;;;19.20;17.30;;;13.30;99.90;;;;;;4917644;29;20506;-72
2021/09/24 00:25:36;;;;;;;18.03;16.67;;;13.40;99.90;;;;;;4917847;29;20469;-72
2021/09/24 00:28:05;;;;;;;19.90;17.87;;;13.40;99.90;;;;;;4917898;29;20450;-72
2021/09/24 00:30:32;;;;;;;18.43;17.33;;;13.40;99.90;;;;;;4917801;29;21004;-72
2021/09/24 00:33:00;;;;;;;19.00;17.70;;;13.40;99.90;;;;;;4917717;29;20454;-72
2021/09/24 00:35:27;;;;;;;18.00;16.67;;;13.50;99.90;;;;;;4917558;29;20459;-72
2021/09/24 00:37:54;;;;;;;19.53;18.13;;;13.40;99.90;;;;;;4917209;29;20458;-72
2021/09/24 00:40:20;;;;;;;18.40;17.07;;;13.40;99.90;;;;;;4917650;29;20546;-72
2021/09/24 00:42:47;;;;;;;18.77;17.50;;;13.30;99.90;;;;;;4917368;29;20454;-71
2021/09/24 00:45:14;;;;;;;18.00;16.90;;;13.20;99.90;;;;;;4917401;29;20518;-71
2021/09/24 00:47:40;;;;;;;16.50;15.60;;;13.20;99.90;;;;;;4917060;29;20458;-72
2021/09/24 00:50:10;;;;;;;16.77;15.77;;;13.10;99.90;;;;;;4917439;29;20462;-71
2021/09/24 00:52:37;;;;;;;19.43;17.60;;;13.10;99.90;;;;;;4917421;29;20968;-72
2021/09/24 00:55:05;;;;;;;17.83;16.63;;;13.00;99.90;;;;;;4917369;29;20469;-72
2021/09/24 00:57:32;;;;;;;18.33;17.03;;;13.10;99.90;;;;;;4917320;29;20462;-72
2021/09/24 00:59:58;;;;;;;18.93;17.63;;;13.00;99.90;;;;;;4916952;29;21004;-72
2021/09/24 01:02:25;;;;;;;21.03;19.33;;;13.10;99.90;;;;;;4916408;29;20923;-71
2021/09/24 01:04:52;;;;;;;18.77;17.37;;;13.10;99.90;;;;;;4916871;29;20459;-71
2021/09/24 01:07:20;;;;;;;19.97;18.43;;;13.10;99.90;;;;;;4917061;29;20454;-71
2021/09/24 01:09:46;;;;;;;20.90;19.33;;;13.00;99.90;;;;;;4917091;29;20594;-71
2021/09/24 01:12:13;;;;;;;19.27;18.07;;;13.00;99.90;;;;;;4916699;29;20461;-72
2021/09/24 01:14:40;;;;;;;22.00;19.97;;;13.00;99.90;;;;;;4916933;29;20474;-71
2021/09/24 01:17:07;;;;;;;21.50;19.90;;;13.10;99.90;;;;;;4917084;29;20973;-71
2021/09/24 01:19:33;;;;;;;21.63;19.70;;;13.00;99.90;;;;;;4916699;29;20959;-71
2021/09/24 01:22:01;;;;;;;21.37;19.60;;;13.00;99.90;;;;;;4916644;29;20968;-71
2021/09/24 01:24:28;;;;;;;24.47;22.50;;;12.90;99.90;;;;;;4916655;29;20462;-71
2021/09/24 01:26:57;;;;;;;26.87;24.10;;;12.80;99.90;;;;;;4916573;29;20462;-71
2021/09/24 01:29:26;;;;;;;23.13;21.10;;;12.70;99.90;;;;;;4916535;29;20458;-70
2021/09/24 01:31:53;;;;;;;25.20;23.23;;;12.70;99.90;;;;;;4916361;29;20677;-71
2021/09/24 01:34:19;;;;;;;25.83;23.83;;;12.60;99.90;;;;;;4916484;29;20454;-72
2021/09/24 01:36:46;;;;;;;23.77;21.87;;;12.60;99.90;;;;;;4916512;29;20446;-71
2021/09/24 01:39:14;;;;;;;24.90;22.60;;;12.60;99.90;;;;;;4916620;29;20458;-72
2021/09/24 01:41:43;;;;;;;24.57;22.13;;;12.50;99.90;;;;;;4916165;29;20493;-72
2021/09/24 01:44:10;;;;;;;24.37;22.30;;;12.50;99.90;;;;;;4916209;29;20459;-71
2021/09/24 01:46:38;;;;;;;22.33;20.43;;;12.50;99.90;;;;;;4916148;29;20462;-71
2021/09/24 01:49:06;;;;;;;21.83;20.13;;;12.50;99.90;;;;;;4916343;29;20522;-71
2021/09/24 01:51:33;;;;;;;20.20;18.60;;;12.50;99.90;;;;;;4916223;29;21026;-71
2021/09/24 01:54:01;;;;;;;20.70;19.00;;;12.50;99.90;;;;;;4916386;29;20451;-71
2021/09/24 01:56:29;;;;;;;18.53;17.23;;;12.40;99.90;;;;;;4916119;29;20732;-71
2021/09/24 01:58:56;;;;;;;20.10;18.83;;;12.40;99.90;;;;;;4916097;29;20461;-71
2021/09/24 02:01:23;;;;;;;21.97;20.47;;;12.30;99.90;;;;;;4915605;29;20506;-72
2021/09/24 02:03:49;;;;;;;21.07;19.43;;;12.20;99.90;;;;;;4916313;29;20458;-71
2021/09/24 02:06:16;;;;;;;21.03;19.43;;;12.20;99.90;;;;;;4915950;29;20502;-73
2021/09/24 02:08:43;;;;;;;20.57;19.17;;;12.20;99.90;;;;;;4915953;29;20458;-72
2021/09/24 02:11:11;;;;;;;22.23;20.53;;;12.20;99.90;;;;;;4915688;29;20953;-72
2021/09/24 02:13:39;;;;;;;21.80;20.33;;;12.20;99.90;;;;;;4915639;29;20485;-72
2021/09/24 02:16:06;;;;;;;23.20;21.40;;;12.20;99.90;;;;;;4915005;29;20536;-72
2021/09/24 02:18:33;;;;;;;23.80;21.70;;;12.20;99.90;;;;;;4916052;29;20490;-72
2021/09/24 02:21:00;;;;;;;22.90;21.00;;;12.20;99.90;;;;;;4915381;29;20486;-72
2021/09/24 02:23:27;;;;;;;23.07;21.07;;;12.20;99.90;;;;;;4915592;29;20450;-72
2021/09/24 02:25:53;;;;;;;25.47;23.30;;;12.10;99.90;;;;;;4915512;29;21046;-73
2021/09/24 02:28:20;;;;;;;25.60;23.17;;;12.10;99.90;;;;;;4915734;29;20466;-73
2021/09/24 02:30:48;;;;;;;23.83;21.83;;;12.10;99.90;;;;;;4915356;29;20454;-72
2021/09/24 02:33:15;;;;;;;23.90;21.83;;;12.20;99.90;;;;;;4915686;29;20813;-73
2021/09/24 02:35:42;;;;;;;25.40;23.10;;;12.20;99.90;;;;;;4915283;29;20788;-72
2021/09/24 02:38:08;;;;;;;23.53;21.93;;;12.20;99.90;;;;;;4915470;29;20462;-72
2021/09/24 02:40:35;;;;;;;24.47;22.47;;;12.20;99.90;;;;;;4915416;29;20565;-73
2021/09/24 02:43:02;;;;;;;26.00;24.00;;;12.30;99.90;;;;;;4915297;29;20766;-74
2021/09/24 02:45:29;;;;;;;27.90;25.77;;;12.30;99.90;;;;;;4915214;29;20454;-72
2021/09/24 02:47:57;;;;;;;23.93;22.00;;;12.30;99.90;;;;;;4915010;29;21024;-73
2021/09/24 02:50:23;;;;;;;22.17;20.43;;;12.30;99.90;;;;;;4914750;29;20957;-72
2021/09/24 02:52:50;;;;;;;23.37;21.60;;;12.30;99.90;;;;;;4915179;29;20465;-72
2021/09/24 02:55:19;;;;;;;23.00;20.60;;;12.30;99.90;;;;;;4914911;29;20950;-71
2021/09/24 02:57:46;;;;;;;24.17;22.47;;;12.20;99.90;;;;;;4914642;29;20465;-71
2021/09/24 03:00:14;;;;;;;22.20;19.83;;;12.20;99.90;;;;;;4914729;29;21051;-71
2021/09/24 03:02:41;;;;;;;24.27;22.17;;;12.10;99.90;;;;;;4914507;29;20542;-72
2021/09/24 03:05:10;;;;;;;23.87;22.07;;;12.00;99.90;;;;;;4914938;29;20457;-72
2021/09/24 03:07:37;;;;;;;24.73;22.57;;;12.00;99.90;;;;;;4914722;29;20455;-72
2021/09/24 03:10:05;;;;;;;21.93;20.33;;;12.00;99.90;;;;;;4915137;29;20522;-73
2021/09/24 03:12:31;;;;;;;22.70;21.10;;;12.00;99.90;;;;;;4914396;29;20453;-73
2021/09/24 03:14:58;;;;;;;23.63;21.73;;;12.20;99.90;;;;;;4914745;29;20462;-73
2021/09/24 03:17:25;;;;;;;23.00;20.90;;;12.30;99.90;;;;;;4914477;29;20561;-73
2021/09/24 03:19:52;;;;;;;22.47;20.40;;;12.30;99.90;;;;;;4914750;29;20486;-73
2021/09/24 03:22:20;;;;;;;23.60;21.60;;;12.30;99.90;;;;;;4914486;29;20493;-73
2021/09/24 03:24:46;;;;;;;26.17;23.70;;;12.40;99.90;;;;;;4914613;29;20450;-72
2021/09/24 03:27:13;;;;;;;25.97;23.73;;;12.40;99.90;;;;;;4914439;29;20489;-73
2021/09/24 03:29:40;;;;;;;23.67;21.87;;;12.40;99.90;;;;;;4914473;29;20461;-73
2021/09/24 03:32:07;;;;;;;24.13;22.53;;;12.40;99.90;;;;;;4914329;29;20446;-72
2021/09/24 03:34:34;;;;;;;20.87;19.40;;;12.50;99.90;;;;;;4914639;29;20809;-73
2021/09/24 03:37:01;;;;;;;20.67;19.27;;;12.50;99.90;;;;;;4914194;29;20502;-71
2021/09/24 03:39:29;;;;;;;21.83;20.30;;;12.50;99.90;;;;;;4914299;29;20457;-72
2021/09/24 03:41:56;;;;;;;22.50;21.00;;;12.40;99.90;;;;;;4914120;29;20494;-72
2021/09/24 03:44:23;;;;;;;21.20;19.87;;;12.30;99.90;;;;;;4914185;29;20458;-73
2021/09/24 03:46:50;;;;;;;20.70;19.30;;;12.40;99.90;;;;;;4914357;29;20455;-73
2021/09/24 03:49:17;;;;;;;21.80;20.30;;;12.30;99.90;;;;;;4914188;29;20514;-72
2021/09/24 03:51:43;;;;;;;21.30;19.50;;;12.30;99.90;;;;;;4914193;29;21169;-74
2021/09/24 03:54:10;;;;;;;22.53;20.80;;;12.30;99.90;;;;;;4914010;29;20458;-72
2021/09/24 03:56:38;;;;;;;21.80;20.07;;;12.20;99.90;;;;;;4914619;29;20458;-73
2021/09/24 03:59:05;;;;;;;21.33;19.67;;;12.20;99.90;;;;;;4914183;29;20455;-72
2021/09/24 04:01:32;;;;;;;21.00;19.13;;;12.20;99.90;;;;;;4913829;29;20498;-72
2021/09/24 04:03:58;;;;;;;23.93;21.37;;;12.00;99.90;;;;;;4914009;29;20878;-73
2021/09/24 04:06:25;;;;;;;21.30;19.60;;;11.90;99.90;;;;;;4914059;29;20461;-73
2021/09/24 04:08:52;;;;;;;21.30;19.60;;;11.90;99.90;;;;;;4914553;29;20462;-74
2021/09/24 04:11:18;;;;;;;22.10;19.70;;;11.80;99.90;;;;;;4914394;29;20450;-73
2021/09/24 04:13:46;;;;;;;22.23;20.63;;;11.80;99.90;;;;;;4913965;29;20941;-72
2021/09/24 04:16:14;;;;;;;20.40;18.90;;;11.80;99.90;;;;;;4914286;29;20462;-73
2021/09/24 04:18:40;;;;;;;19.77;18.17;;;11.80;99.90;;;;;;4914154;29;20454;-73
2021/09/24 04:21:07;;;;;;;20.03;18.50;;;11.90;99.90;;;;;;4914259;29;20497;-73
2021/09/24 04:23:34;;;;;;;20.07;18.53;;;11.90;99.90;;;;;;4914286;29;20462;-73
2021/09/24 04:26:01;;;;;;;21.07;19.23;;;11.90;99.90;;;;;;4914221;29;20462;-74
2021/09/24 04:28:28;;;;;;;22.00;19.87;;;11.90;99.90;;;;;;4914215;29;20461;-74
2021/09/24 04:30:56;;;;;;;21.70;19.83;;;11.90;99.90;;;;;;4914009;29;20462;-74
2021/09/24 04:33:23;;;;;;;23.73;21.63;;;11.90;99.90;;;;;;4913986;29;20530;-73
2021/09/24 04:35:50;;;;;;;22.13;19.97;;;11.90;99.90;;;;;;4913819;29;20957;-73
2021/09/24 04:38:17;;;;;;;20.70;18.80;;;11.90;99.90;;;;;;4915251;29;20454;-73
2021/09/24 04:40:43;;;;;;;22.57;20.60;;;11.80;99.90;;;;;;4917390;29;21001;-72
2021/09/24 04:43:10;;;;;;;21.40;19.43;;;11.80;99.90;;;;;;4917602;29;20502;-72
2021/09/24 04:45:37;;;;;;;20.23;18.73;;;11.80;99.90;;;;;;4917494;29;20944;-72
2021/09/24 04:48:05;;;;;;;23.17;20.80;;;11.80;99.90;;;;;;4917655;29;20484;-72
2021/09/24 04:50:32;;;;;;;21.70;19.80;;;11.70;99.90;;;;;;4917329;29;20494;-72
2021/09/24 04:52:59;;;;;;;23.50;21.60;;;11.70;99.90;;;;;;4917649;29;20483;-72
2021/09/24 04:55:26;;;;;;;23.30;21.27;;;11.70;99.90;;;;;;4917586;29;20541;-72
2021/09/24 04:57:53;;;;;;;23.43;21.43;;;11.60;99.90;;;;;;4917410;29;20462;-71
2021/09/24 05:00:20;;;;;;;24.97;22.87;;;11.60;99.90;;;;;;4917144;29;20486;-72
2021/09/24 05:02:47;;;;;;;24.23;20.80;;;11.70;99.90;;;;;;4917193;29;20490;-72
2021/09/24 05:05:15;;;;;;;21.93;20.13;;;11.70;99.90;;;;;;4917284;29;20469;-71
2021/09/24 05:07:41;;;;;;;22.53;20.60;;;11.70;99.90;;;;;;4917359;29;20450;-72
2021/09/24 05:10:09;;;;;;;23.53;21.20;;;11.70;99.90;;;;;;4917332;29;20446;-72
2021/09/24 05:12:36;;;;;;;26.40;23.53;;;11.80;99.90;;;;;;4917088;29;20447;-72
2021/09/24 05:15:03;;;;;;;23.80;21.77;;;11.90;99.90;;;;;;4917162;29;20512;-73
2021/09/24 05:17:30;;;;;;;23.03;21.23;;;11.80;99.90;;;;;;4916850;29;20465;-73
2021/09/24 05:19:57;;;;;;;23.83;21.63;;;11.70;99.90;;;;;;4916793;29;20892;-73
2021/09/24 05:22:25;;;;;;;23.93;21.70;;;11.70;99.90;;;;;;4916871;29;20494;-72
2021/09/24 05:24:53;;;;;;;24.90;22.70;;;11.70;99.90;;;;;;4917136;29;20505;-73
2021/09/24 05:27:19;;;;;;;35.37;23.67;;;11.70;99.90;;;;;;4917096;29;20538;-72
2021/09/24 05:29:46;;;;;;;23.07;21.07;;;11.70;99.90;;;;;;4916980;29;20458;-72
2021/09/24 05:32:14;;;;;;;26.10;22.77;;;11.70;99.90;;;;;;4916657;29;20953;-72
2021/09/24 05:34:41;;;;;;;24.60;22.60;;;11.70;99.90;;;;;;4916404;29;20546;-72
2021/09/24 05:37:08;;;;;;;24.67;22.10;;;11.70;99.90;;;;;;4916725;29;20544;-73
2021/09/24 05:39:37;;;;;;;25.40;23.10;;;11.70;99.90;;;;;;4916851;29;20557;-73
2021/09/24 05:42:04;;;;;;;24.67;22.50;;;11.80;99.90;;;;;;4916564;29;20497;-73
2021/09/24 05:44:31;;;;;;;25.20;22.80;;;11.80;99.90;;;;;;4916477;29;20466;-74
2021/09/24 05:46:57;;;;;;;24.10;22.10;;;11.80;99.90;;;;;;4916343;29;20720;-73
2021/09/24 05:49:29;;;;;;;25.60;22.87;;;11.80;99.90;;;;;;4916345;29;20459;-73
2021/09/24 05:51:55;;;;;;;22.30;20.23;;;11.90;99.90;;;;;;4916121;29;20466;-73
2021/09/24 05:54:22;;;;;;;26.63;24.20;;;11.90;99.90;;;;;;4916148;29;20470;-73
2021/09/24 05:56:50;;;;;;;26.63;23.77;;;11.90;99.90;;;;;;4916531;29;20477;-73
2021/09/24 05:59:17;;;;;;;26.50;24.10;;;12.00;99.90;;;;;;4916072;29;20597;-73
2021/09/24 06:01:45;;;;;;;24.30;22.10;;;12.10;99.90;;;;;;4915905;29;20502;-72
2021/09/24 06:04:11;;;;;;;24.20;22.13;;;12.40;99.90;;;;;;4915729;29;20657;-73
2021/09/24 06:06:38;;;;;;;25.80;23.40;;;12.70;99.90;;;;;;4916120;29;20458;-72
2021/09/24 06:09:05;;;;;;;24.87;22.40;;;13.00;99.90;;;;;;4916202;29;20466;-74
2021/09/24 06:11:31;;;;;;;28.13;22.87;;;13.20;99.90;;;;;;4915793;29;20447;-73
2021/09/24 06:13:59;;;;;;;24.40;21.93;;;13.40;99.90;;;;;;4915711;29;20454;-72
2021/09/24 06:16:26;;;;;;;25.27;23.13;;;13.70;99.90;;;;;;4915765;29;20459;-73
2021/09/24 06:18:53;;;;;;;25.08;22.90;;;13.90;99.90;;;;;;4915209;29;20854;-72
2021/09/24 06:21:21;;;;;;;25.17;22.73;;;14.30;99.90;;;;;;4916095;29;20206;-72
2021/09/24 06:23:48;;;;;;;24.13;22.10;;;14.70;99.90;;;;;;4915541;29;21043;-72
2021/09/24 06:26:15;;;;;;;24.17;21.47;;;15.10;99.90;;;;;;4915642;29;20458;-72
2021/09/24 06:28:42;;;;;;;23.37;20.97;;;15.30;99.90;;;;;;4915774;29;20462;-73
2021/09/24 06:31:10;;;;;;;26.43;23.47;;;15.50;99.90;;;;;;4915548;29;20505;-73
2021/09/24 06:33:37;;;;;;;22.57;20.87;;;15.60;99.90;;;;;;4915104;29;20491;-73
2021/09/24 06:36:04;;;;;;;23.27;21.00;;;15.70;99.90;;;;;;4914153;29;20450;-74
2021/09/24 06:38:31;;;;;;;24.17;22.10;;;15.70;99.90;;;;;;4913617;29;20517;-73
2021/09/24 06:40:58;;;;;;;25.30;22.73;;;16.00;99.90;;;;;;4915337;29;20918;-72
2021/09/24 06:43:54;;;;;;;28.50;21.43;;;16.20;99.90;;;;;;4915261;29;20490;-74
2021/09/24 06:46:22;;;;;;;23.20;21.03;;;16.60;99.90;;;;;;4857004;29;20453;-73
2021/09/24 06:48:58;;;;;;;23.17;21.17;;;17.10;99.90;;;;;;4901769;29;20454;-74
2021/09/24 06:51:25;;;;;;;23.80;21.70;;;17.60;99.90;;;;;;4913277;29;20457;-74
2021/09/24 06:53:52;;;;;;;23.80;21.77;;;17.90;99.90;;;;;;4914263;29;20450;-74
2021/09/24 06:56:18;;;;;;;24.13;22.03;;;18.10;99.90;;;;;;4915206;29;20450;-74
2021/09/24 06:58:45;;;;;;;23.73;21.53;;;18.30;99.90;;;;;;4914679;29;20508;-74
2021/09/24 07:01:13;;;;;;;22.13;20.30;;;18.50;99.90;;;;;;4913970;29;20486;-74
2021/09/24 07:03:41;;;;;;;23.37;21.27;;;19.00;99.90;;;;;;4914688;29;20493;-74
2021/09/24 07:06:08;;;;;;;25.37;23.07;;;19.40;99.90;;;;;;4914778;29;20869;-74
2021/09/24 07:08:35;;;;;;;22.70;20.90;;;19.80;99.90;;;;;;4914917;29;20458;-74
2021/09/24 07:11:01;;;;;;;23.73;21.80;;;20.10;99.90;;;;;;4914579;29;20450;-74
2021/09/24 07:13:28;;;;;;;21.97;20.27;;;19.90;99.90;;;;;;4914461;29;20506;-74
2021/09/24 07:15:55;;;;;;;21.90;20.40;;;20.00;99.90;;;;;;4914378;29;20481;-74
2021/09/24 07:18:21;;;;;;;21.53;19.67;;;20.10;99.90;;;;;;4914393;29;20495;-73
2021/09/24 07:20:49;;;;;;;23.57;21.07;;;20.20;99.90;;;;;;4914523;29;20829;-73
2021/09/24 07:23:16;;;;;;;22.30;20.33;;;20.50;99.90;;;;;;4914211;29;20494;-74
2021/09/24 07:25:43;;;;;;;20.97;19.40;;;21.00;99.90;;;;;;4914437;29;20450;-74
2021/09/24 07:28:09;;;;;;;18.27;17.00;;;21.50;99.90;;;;;;4914254;29;20458;-74
2021/09/24 07:30:36;;;;;;;19.30;18.00;;;21.20;99.90;;;;;;4914177;29;20953;-74
2021/09/24 07:33:03;;;;;;;17.30;16.30;;;21.50;99.90;;;;;;4914831;29;20506;-74
2021/09/24 07:35:30;;;;;;;17.37;16.47;;;21.50;99.90;;;;;;4914408;29;20510;-75
2021/09/24 07:37:58;;;;;;;17.67;16.60;;;21.60;99.70;;;;;;4912458;29;20533;-74
2021/09/24 07:40:25;;;;;;;18.47;17.33;;;21.70;99.90;;;;;;4914444;29;20451;-75
2021/09/24 07:42:52;;;;;;;17.03;16.13;;;22.00;99.10;;;;;;4914728;29;20542;-74
2021/09/24 07:45:18;;;;;;;16.90;16.00;;;22.10;98.90;;;;;;4915053;29;20454;-76
2021/09/24 07:47:45;;;;;;;18.40;17.03;;;22.10;99.00;;;;;;4914815;29;20461;-73
2021/09/24 07:50:12;;;;;;;17.03;15.93;;;22.10;99.00;;;;;;4914658;29;20944;-73
2021/09/24 07:52:38;;;;;;;17.60;16.60;;;22.20;98.80;;;;;;4914844;29;20454;-77
2021/09/24 07:55:08;;;;;;;17.83;16.53;;;22.20;98.60;;;;;;4914830;29;20465;-75
2021/09/24 07:57:35;;;;;;;17.93;16.60;;;22.30;98.50;;;;;;4914833;29;20458;-75
2021/09/24 08:00:04;;;;;;;17.83;16.33;;;22.80;97.70;;;;;;4914591;29;20470;-75
2021/09/24 08:02:30;;;;;;;17.97;16.87;;;22.60;97.80;;;;;;4914498;29;20869;-75
2021/09/24 08:04:57;;;;;;;18.60;17.30;;;22.60;97.70;;;;;;4914802;29;20518;-75
2021/09/24 08:07:24;;;;;;;18.03;16.77;;;22.30;97.90;;;;;;4914726;29;20537;-74
2021/09/24 08:09:51;;;;;;;18.30;17.10;;;22.70;97.90;;;;;;4914807;29;20518;-76
2021/09/24 08:12:19;;;;;;;19.10;17.70;;;22.80;97.20;;;;;;4914525;29;20450;-76
2021/09/24 08:14:46;;;;;;;20.17;18.87;;;22.70;97.40;;;;;;4917495;29;20967;-76
2021/09/24 08:17:13;;;;;;;19.50;18.10;;;22.80;97.10;;;;;;4916335;29;20443;-75
2021/09/24 08:19:39;;;;;;;18.00;16.60;;;22.80;97.40;;;;;;4917674;29;20462;-76
2021/09/24 08:22:06;;;;;;;19.53;18.53;;;23.10;97.00;;;;;;4918049;29;20490;-76
2021/09/24 08:24:33;;;;;;;19.20;18.10;;;23.50;96.40;;;;;;4918067;29;20455;-76
2021/09/24 08:26:59;;;;;;;18.40;17.27;;;23.40;96.20;;;;;;4910295;29;20473;-74
2021/09/24 08:29:27;;;;;;;17.90;17.00;;;23.70;95.80;;;;;;4901513;29;20459;-73
2021/09/24 08:31:54;;;;;;;17.13;15.93;;;24.30;95.50;;;;;;4898372;29;20459;-71
2021/09/24 08:34:21;;;;;;;19.47;18.10;;;24.30;94.60;;;;;;4898977;29;20950;-72
2021/09/24 08:36:47;;;;;;;18.27;17.07;;;24.50;94.30;;;;;;4898800;29;20508;-70
2021/09/24 08:39:14;;;;;;;17.83;16.80;;;24.40;94.50;;;;;;4898213;29;20459;-71
2021/09/24 08:41:41;;;;;;;17.40;16.40;;;24.50;94.50;;;;;;4904011;29;20474;-73
2021/09/24 08:44:08;;;;;;;16.97;15.97;;;24.20;94.50;;;;;;4901545;29;20498;-74
2021/09/24 08:46:36;;;;;;;18.73;17.60;;;24.50;94.10;;;;;;4898313;29;20455;-73
2021/09/24 08:49:04;;;;;;;18.97;17.57;;;25.10;93.10;;;;;;4898275;29;20458;-73
2021/09/24 08:51:31;;;;;;;18.07;16.97;;;25.50;92.80;;;;;;4898099;29;20470;-73
2021/09/24 08:53:58;;;;;;;17.83;16.83;;;25.40;92.60;;;;;;4898157;29;20543;-73
2021/09/24 08:56:25;;;;;;;18.50;17.03;;;26.20;91.60;;;;;;4897508;29;20460;-73
2021/09/24 08:58:52;;;;;;;18.63;17.43;;;26.70;90.20;;;;;;4898130;29;20886;-74
2021/09/24 09:01:18;;;;;;;17.70;16.50;;;26.10;90.50;;;;;;4897892;29;20558;-74
2021/09/24 09:03:48;;;;;;;18.70;17.27;;;26.10;91.00;;;;;;4897832;29;20844;-73
2021/09/24 09:06:16;;;;;;;17.70;16.80;;;25.60;91.40;;;;;;4897675;29;20826;-73
2021/09/24 09:08:45;;;;;;;19.57;18.57;;;26.30;90.70;;;;;;4897748;29;20455;-74
2021/09/24 09:11:16;;;;;;;17.43;16.53;;;27.10;89.20;;;;;;4897504;29;20454;-73
2021/09/24 09:13:47;;;;;;;17.47;16.47;;;27.90;86.90;;;;;;4897720;29;20977;-73
2021/09/24 09:16:17;;;;;;;16.53;15.63;;;27.80;84.90;;;;;;4897560;29;20459;-73
2021/09/24 09:18:47;;;;;;;17.87;16.77;;;27.80;84.40;;;;;;4897442;29;20462;-73
2021/09/24 09:21:15;;;;;;;17.80;16.87;;;28.20;84.30;;;;;;4898086;29;20568;-73
2021/09/24 09:23:48;;;;;;;18.30;17.30;;;28.50;81.50;;;;;;4897009;29;20491;-73
2021/09/24 09:26:17;;;;;;;17.57;16.50;;;29.30;80.50;;;;;;4897339;29;20481;-73
2021/09/24 09:28:51;;;;;;;17.70;16.80;;;29.80;77.00;;;;;;4897342;29;20463;-73
2021/09/24 09:31:24;;;;;;;17.00;15.77;;;30.50;75.70;;;;;;4897261;29;20455;-73
2021/09/24 09:33:53;;;;;;;18.63;17.63;;;31.20;72.00;;;;;;4897845;29;20467;-74
2021/09/24 09:36:25;;;;;;;18.47;17.50;;;31.20;70.80;;;;;;4897353;29;20806;-73
2021/09/24 09:38:52;;;;;;;17.77;16.90;;;29.70;74.70;;;;;;4897359;29;20466;-74
2021/09/24 09:41:21;;;;;;;18.40;17.27;;;29.80;75.50;;;;;;4897504;29;20459;-74
2021/09/24 09:43:50;;;;;;;19.33;18.30;;;30.40;73.00;;;;;;4897244;29;20509;-73
2021/09/24 09:46:20;;;;;;;20.43;19.00;;;29.10;74.80;;;;;;4896913;29;20459;-73
2021/09/24 09:49:03;;;;;;;19.17;17.80;;;28.10;78.10;;;;;;4897321;29;20463;-74
2021/09/24 09:51:30;;;;;;;19.40;18.13;;;28.30;78.60;;;;;;4897048;29;20478;-73
2021/09/24 09:53:57;;;;;;;19.20;17.80;;;27.60;79.00;;;;;;4897062;29;20439;-73
2021/09/24 09:56:35;;;;;;;17.47;16.43;;;27.30;81.40;;;;;;4896937;29;20507;-74
2021/09/24 09:59:02;;;;;;;16.13;15.30;;;27.20;81.30;;;;;;4896851;29;20459;-74
2021/09/24 10:01:29;;;;;;;17.73;16.83;;;26.80;82.70;;;;;;4896828;29;20491;-74
2021/09/24 10:03:55;;;;;;;16.20;15.40;;;28.10;78.90;;;;;;4896477;29;20521;-74
2021/09/24 10:06:25;;;;;;;18.00;17.10;;;29.20;75.20;;;;;;4896893;29;20478;-74
2021/09/24 10:08:54;;;;;;;18.57;17.47;;;30.00;72.70;;;;;;4897011;29;20470;-74
2021/09/24 10:11:28;;;;;;;17.20;16.20;;;31.80;68.20;;;;;;4896967;29;20451;-73
2021/09/24 10:13:57;;;;;;;17.50;16.60;;;33.20;63.90;;;;;;4896518;29;20914;-72
2021/09/24 10:16:26;;;;;;;17.20;16.40;;;33.70;61.60;;;;;;4896160;29;20463;-71
2021/09/24 10:18:54;;;;;;;19.27;18.27;;;33.50;60.90;;;;;;4896675;29;20804;-72
2021/09/24 10:21:21;;;;;;;18.67;17.77;;;34.00;59.50;;;;;;4896801;29;20463;-72
2021/09/24 10:23:49;;;;;;;17.17;16.47;;;34.60;57.40;;;;;;4896249;29;21009;-72
2021/09/24 10:26:25;;;;;;;17.53;16.83;;;34.40;56.60;;;;;;4896431;29;20451;-72
2021/09/24 10:28:57;;;;;;;17.00;16.33;;;34.50;55.70;;;;;;4896473;29;20895;-72
2021/09/24 10:31:26;;;;;;;17.30;16.60;;;35.00;54.20;;;;;;4896214;29;20550;-72
2021/09/24 10:34:00;;;;;;;17.33;16.37;;;34.30;55.00;;;;;;4896014;29;21029;-72
2021/09/24 10:36:39;;;;;;;17.17;16.40;;;33.70;55.50;;;;;;4895353;29;20554;-72
2021/09/24 10:39:38;;;;;;;17.50;16.60;;;33.90;55.70;;;;;;4896721;29;20459;-72
2021/09/24 10:42:23;;;;;;;16.77;15.97;;;34.30;54.20;;;;;;4896364;29;20455;-72
2021/09/24 10:45:05;;;;;;;17.17;16.03;;;34.50;53.80;;;;;;4896052;29;20493;-72
2021/09/24 10:47:55;;;;;;;17.67;16.90;;;34.40;54.10;;;;;;4895933;29;20459;-72
2021/09/24 10:51:02;;;;;;;16.33;15.53;;;33.60;54.70;;;;;;4896263;29;20458;-72
2021/09/24 10:53:47;;;;;;;16.67;15.97;;;32.10;56.70;;;;;;4896017;29;20939;-72
2021/09/24 10:56:27;;;;;;;17.83;17.00;;;29.90;62.00;;;;;;4895661;29;20458;-75
2021/09/24 10:58:55;;;;;;;16.20;15.40;;;29.50;63.30;;;;;;4895828;29;20454;-74
2021/09/24 11:01:39;;;;;;;16.70;15.80;;;28.50;65.00;;;;;;4895662;29;20868;-71
2021/09/24 11:04:14;;;;;;;16.50;15.80;;;28.30;66.70;;;;;;4896072;29;20555;-71
2021/09/24 11:06:44;;;;;;;15.97;15.23;;;28.80;66.10;;;;;;4895779;29;20467;-74
2021/09/24 11:09:13;;;;;;;16.20;15.40;;;28.30;65.80;;;;;;4895575;29;20451;-75
2021/09/24 11:11:43;;;;;;;16.70;15.80;;;27.90;68.20;;;;;;4895594;29;21021;-72
2021/09/24 11:14:25;;;;;;;15.57;14.97;;;29.20;65.00;;;;;;4895671;29;20468;-73
2021/09/24 11:16:53;;;;;;;17.03;16.33;;;30.40;62.30;;;;;;4895790;29;20455;-73
2021/09/24 11:19:38;;;;;;;15.83;15.13;;;30.30;61.20;;;;;;4895415;29;20463;-72
2021/09/24 11:22:12;;;;;;;16.33;15.60;;;29.60;63.30;;;;;;4895765;29;20459;-72
2021/09/24 11:24:41;;;;;;;16.03;15.33;;;28.90;64.50;;;;;;4895487;29;20481;-72
2021/09/24 11:27:12;;;;;;;16.20;15.50;;;29.10;64.50;;;;;;4895161;29;20455;-72
2021/09/24 11:29:41;;;;;;;16.20;15.40;;;28.10;66.40;;;;;;4895632;29;20900;-71
2021/09/24 11:32:11;;;;;;;15.47;14.87;;;28.00;67.10;;;;;;4895522;29;20455;-72
2021/09/24 11:34:57;;;;;;;16.83;16.03;;;28.60;65.70;;;;;;4895390;29;20447;-73
2021/09/24 11:37:26;;;;;;;16.97;16.07;;;28.20;67.50;;;;;;4895319;29;20495;-72
2021/09/24 11:40:01;;;;;;;15.80;15.00;;;28.60;67.00;;;;;;4895788;29;20454;-72
2021/09/24 11:42:32;;;;;;;18.57;17.40;;;30.10;64.40;;;;;;4895346;29;20950;-72
2021/09/24 11:45:00;;;;;;;16.93;15.87;;;30.10;61.70;;;;;;4895212;29;20718;-72
2021/09/24 11:47:29;;;;;;;15.53;14.73;;;29.60;63.50;;;;;;4895229;29;20531;-74
2021/09/24 11:49:58;;;;;;;16.13;15.30;;;28.80;65.50;;;;;;4894996;29;20950;-73
2021/09/24 11:52:35;;;;;;;15.70;14.70;;;28.60;66.00;;;;;;4895202;29;20462;-73
2021/09/24 11:55:20;;;;;;;15.80;15.10;;;27.90;68.30;;;;;;4895528;29;20503;-73
2021/09/24 11:58:03;;;;;;;15.67;15.07;;;28.20;67.90;;;;;;4895250;29;20458;-73
2021/09/24 12:00:32;;;;;;;16.07;15.17;;;29.50;64.70;;;;;;4894869;29;20486;-71
2021/09/24 12:03:19;;;;;;;15.73;14.93;;;29.80;63.30;;;;;;4875911;29;20455;-72
2021/09/24 12:05:55;;;;;;;16.03;15.30;;;30.20;62.40;;;;;;4876494;29;20444;-72
2021/09/24 12:08:23;;;;;;;15.60;14.80;;;30.70;61.70;;;;;;4876635;29;20832;-74
2021/09/24 12:11:00;;;;;;;17.07;16.27;;;31.00;61.00;;;;;;4876435;29;20460;-74
2021/09/24 12:13:41;;;;;;;16.00;15.30;;;31.00;59.00;;;;;;4876434;29;20452;-74
2021/09/24 12:16:10;;;;;;;16.27;15.57;;;30.70;59.50;;;;;;4876391;29;20475;-74
2021/09/24 12:18:49;;;;;;;16.03;15.33;;;30.20;60.10;;;;;;4876692;29;20460;-74
2021/09/24 12:21:18;;;;;;;15.67;14.97;;;31.20;59.10;;;;;;4876560;29;20464;-71
2021/09/24 12:23:45;;;;;;;14.83;14.20;;;31.70;56.90;;;;;;4876452;29;20499;-74
2021/09/24 12:26:13;;;;;;;16.80;16.00;;;30.80;58.20;;;;;;4876193;29;20452;-74
2021/09/24 12:29:03;;;;;;;15.73;14.70;;;29.70;62.00;;;;;;4876284;29;20558;-74
2021/09/24 12:31:38;;;;;;;15.07;14.37;;;29.90;61.20;;;;;;4876253;29;20452;-74
2021/09/24 12:34:07;;;;;;;15.50;14.90;;;29.80;59.90;;;;;;4876545;29;20455;-74
2021/09/24 12:36:34;;;;;;;15.20;14.70;;;29.30;61.40;;;;;;4876453;29;20459;-74